Time;durP1;ratioP1;P1;durP2;ratioP2;P2;SDS_P1;SDS_P2;PMS_P1;PMS_P2;Temp;Humidity;BMP_temperature;BMP_pressure;BME280_temperature;BME280_humidity;BME280_pressure;Samples;Min_cycle;Max_cycle;Signal;HPM_P1;HPM_P2
2023/04/16 00:02:14;;;;;;;569.97;134.90;;;;;;;14.97;42.46;100708.59;5039363;28;20389;-80
2023/04/16 00:04:40;;;;;;;573.65;135.85;;;;;;;14.89;42.44;100696.22;5040013;28;20390;-79
2023/04/16 00:07:06;;;;;;;575.42;136.68;;;;;;;14.96;42.69;100706.94;5048535;28;20399;-81
2023/04/16 00:09:31;;;;;;;571.22;134.48;;;;;;;14.94;42.68;100707.16;5043503;28;20400;-80
2023/04/16 00:11:57;;;;;;;570.43;134.43;;;;;;;14.88;42.78;100700.75;5044378;28;20386;-79
2023/04/16 00:14:22;;;;;;;570.65;134.50;;;;;;;14.86;42.96;100704.66;5054109;28;20379;-79
2023/04/16 00:16:48;;;;;;;569.07;133.73;;;;;;;14.81;42.77;100699.91;5066073;28;20360;-79
2023/04/16 00:19:13;;;;;;;567.83;134.63;;;;;;;14.79;43.08;100706.47;5057875;28;20489;-80
2023/04/16 00:21:39;;;;;;;564.30;132.80;;;;;;;14.75;43.26;100713.19;5054424;28;20409;-80
2023/04/16 00:24:04;;;;;;;563.83;133.45;;;;;;;14.65;43.33;100706.38;5050544;28;20385;-80
2023/04/16 00:26:30;;;;;;;564.93;133.77;;;;;;;14.71;43.38;100713.63;5056708;28;20448;-80
2023/04/16 00:28:55;;;;;;;561.80;132.30;;;;;;;14.59;43.88;100709.03;5049735;28;20381;-80
2023/04/16 00:31:28;;;;;;;564.30;132.15;;;;;;;14.53;43.93;100697.25;5038827;28;20474;-80
2023/04/16 00:33:54;;;;;;;585.65;147.25;;;;;;;14.51;44.14;100697.47;5055958;28;20404;-79
2023/04/16 00:36:21;;;;;;;559.30;133.27;;;;;;;14.47;44.24;100706.06;5039655;28;20395;-80
2023/04/16 00:38:47;;;;;;;461.15;115.50;;;;;;;14.43;44.39;100707.47;5045343;28;20464;-79
2023/04/16 00:41:12;;;;;;;457.27;115.10;;;;;;;14.39;44.37;100708.88;5059148;28;20401;-80
2023/04/16 00:43:38;;;;;;;461.03;116.10;;;;;;;14.41;44.37;100709.50;5061447;28;20377;-80
2023/04/16 00:46:04;;;;;;;455.70;114.87;;;;;;;14.27;44.60;100703.25;5062251;28;20377;-80
2023/04/16 00:48:31;;;;;;;449.52;113.88;;;;;;;14.27;44.69;100703.25;5058299;28;20376;-80
2023/04/16 00:50:59;;;;;;;447.67;113.88;;;;;;;14.27;44.48;100708.59;5053807;28;20379;-80
2023/04/16 00:53:24;;;;;;;459.48;115.03;;;;;;;14.25;44.75;100714.09;5046241;28;20410;-78
2023/04/16 00:55:50;;;;;;;438.08;111.68;;;;;;;14.15;44.84;100698.47;5044701;28;20401;-80
2023/04/16 00:58:17;;;;;;;425.77;110.20;;;;;;;14.10;45.05;100708.06;5041816;28;20731;-78
2023/04/16 01:00:42;;;;;;;412.40;108.05;;;;;;;14.09;44.76;100709.88;5042029;28;20378;-79
2023/04/16 01:03:08;;;;;;;414.40;108.37;;;;;;;14.08;44.75;100702.06;5057957;28;20470;-80
2023/04/16 01:05:35;;;;;;;409.60;107.25;;;;;;;14.18;44.35;100704.44;5045634;28;20428;-81
2023/04/16 01:08:01;;;;;;;294.27;88.70;;;;;;;14.23;44.55;100704.66;5051117;28;20996;-80
2023/04/16 01:10:26;;;;;;;287.63;87.50;;;;;;;14.32;44.40;100701.66;5057616;28;20393;-80
2023/04/16 01:12:52;;;;;;;298.83;90.57;;;;;;;14.27;44.57;100693.41;5042379;28;20902;-79
2023/04/16 01:15:17;;;;;;;283.85;87.75;;;;;;;14.32;44.34;100700.84;5042741;28;20489;-79
2023/04/16 01:17:44;;;;;;;273.07;85.67;;;;;;;14.28;44.46;100688.91;5056788;28;20880;-79
2023/04/16 01:20:10;;;;;;;296.08;89.60;;;;;;;14.38;44.31;100691.22;5058089;28;20396;-79
2023/04/16 01:22:36;;;;;;;279.97;87.00;;;;;;;14.37;44.37;100684.22;5049706;28;20382;-79
2023/04/16 01:25:01;;;;;;;286.93;88.00;;;;;;;14.32;44.58;100685.66;5054279;28;20415;-79
2023/04/16 01:27:27;;;;;;;287.20;88.23;;;;;;;14.36;44.53;100696.75;5056778;28;20466;-79
2023/04/16 01:29:52;;;;;;;294.23;89.20;;;;;;;14.41;44.59;100686.31;5045428;28;20393;-78
2023/04/16 01:32:18;;;;;;;244.07;80.95;;;;;;;14.46;44.80;100685.75;5054850;28;20413;-79
2023/04/16 01:34:43;;;;;;;241.10;80.27;;;;;;;14.42;44.90;100696.00;5044431;28;20394;-78
2023/04/16 01:37:09;;;;;;;238.70;80.45;;;;;;;14.45;44.88;100687.56;5049644;28;20384;-80
2023/04/16 01:39:34;;;;;;;235.50;79.10;;;;;;;14.47;44.89;100690.06;5054900;28;20395;-80
2023/04/16 01:42:00;;;;;;;233.23;79.85;;;;;;;14.61;44.62;100693.66;5051225;28;20387;-80
2023/04/16 01:44:25;;;;;;;238.70;79.67;;;;;;;14.57;44.61;100682.53;5055764;28;20472;-82
2023/04/16 01:46:51;;;;;;;240.00;80.27;;;;;;;14.51;44.77;100686.81;5040771;28;20562;-79
2023/04/16 01:49:16;;;;;;;246.47;81.17;;;;;;;14.46;45.19;100685.75;5043295;28;20936;-80
2023/04/16 01:51:42;;;;;;;238.33;80.33;;;;;;;14.41;45.31;100689.00;5043984;28;20379;-79
2023/04/16 01:54:08;;;;;;;231.85;77.95;;;;;;;14.37;45.51;100686.91;5049220;28;20452;-81
2023/04/16 01:56:33;;;;;;;221.23;76.13;;;;;;;14.32;45.87;100684.84;5041374;28;20873;-80
2023/04/16 01:58:59;;;;;;;228.20;77.40;;;;;;;14.30;45.83;100697.53;5034555;28;20383;-79
2023/04/16 02:01:25;;;;;;;225.10;77.03;;;;;;;14.24;46.05;100685.81;5043888;28;20483;-78
2023/04/16 02:03:51;;;;;;;222.63;76.70;;;;;;;14.35;45.64;100697.78;5055654;28;20396;-80
2023/04/16 02:06:16;;;;;;;223.05;76.65;;;;;;;14.32;45.88;100679.50;5053854;28;20380;-80
2023/04/16 02:08:42;;;;;;;227.77;77.23;;;;;;;14.37;45.70;100682.41;5044547;28;20381;-81
2023/04/16 02:11:07;;;;;;;224.90;77.00;;;;;;;14.37;45.30;100684.22;5060031;28;20373;-80
2023/04/16 02:13:33;;;;;;;229.25;77.47;;;;;;;14.36;45.68;100680.75;5043802;28;20460;-81
2023/04/16 02:15:58;;;;;;;232.10;78.20;;;;;;;14.39;45.50;100679.56;5045238;28;20417;-80
2023/04/16 02:18:24;;;;;;;235.80;78.70;;;;;;;14.53;45.31;100683.91;5053408;28;20395;-80
2023/04/16 02:20:50;;;;;;;227.50;77.53;;;;;;;14.51;45.44;100678.81;5049951;28;20382;-80
2023/04/16 02:23:16;;;;;;;246.67;80.03;;;;;;;14.47;45.51;100679.38;5040328;28;20382;-79
2023/04/16 02:25:43;;;;;;;241.63;79.50;;;;;;;14.46;45.61;100680.41;5040775;28;20438;-81
2023/04/16 02:28:12;;;;;;;229.60;78.00;;;;;;;14.34;46.35;100677.47;5054387;28;20836;-80
2023/04/16 02:30:39;;;;;;;238.23;79.05;;;;;;;14.37;46.40;100677.06;5044363;28;20386;-79
2023/04/16 02:33:06;;;;;;;232.05;78.13;;;;;;;14.40;46.23;100676.66;5037115;28;20399;-79
2023/04/16 02:35:35;;;;;;;245.03;79.97;;;;;;;14.44;46.03;100672.59;5040920;28;20474;-79
2023/04/16 02:38:01;;;;;;;231.47;77.87;;;;;;;14.34;46.51;100662.28;5059785;28;20384;-80
2023/04/16 02:40:27;;;;;;;229.32;77.55;;;;;;;14.18;46.54;100667.09;5039952;28;20398;-80
2023/04/16 02:42:53;;;;;;;226.87;77.33;;;;;;;14.16;46.71;100672.63;5049325;28;20382;-79
2023/04/16 02:45:19;;;;;;;230.33;78.00;;;;;;;14.20;46.41;100670.41;5041550;28;20878;-79
2023/04/16 02:47:45;;;;;;;228.82;77.40;;;;;;;14.14;46.57;100677.34;5049970;28;20892;-80
2023/04/16 02:50:11;;;;;;;234.95;79.07;;;;;;;14.19;46.78;100674.91;5036246;28;20390;-81
2023/04/16 02:52:36;;;;;;;230.93;77.77;;;;;;;14.19;46.90;100668.72;5055837;28;20525;-80
2023/04/16 02:55:02;;;;;;;237.27;78.87;;;;;;;14.19;47.44;100674.06;5054237;28;20398;-80
2023/04/16 02:57:27;;;;;;;219.13;75.88;;;;;;;14.04;47.75;100653.66;5048189;28;20380;-81
2023/04/16 02:59:53;;;;;;;214.20;75.07;;;;;;;13.94;48.09;100663.88;5060044;28;20400;-80
2023/04/16 03:02:18;;;;;;;216.05;75.75;;;;;;;13.91;48.12;100659.72;5058704;28;20388;-81
2023/04/16 03:04:44;;;;;;;214.63;75.60;;;;;;;13.85;48.43;100662.34;5048286;28;20387;-80
2023/04/16 03:07:11;;;;;;;219.20;76.40;;;;;;;13.80;48.62;100662.09;5041030;28;20392;-79
2023/04/16 03:09:36;;;;;;;221.60;78.43;;;;;;;13.81;48.54;100672.56;5041896;28;20394;-79
2023/04/16 03:12:02;;;;;;;206.18;75.95;;;;;;;13.83;48.93;100669.69;5038513;28;20461;-79
2023/04/16 03:14:28;;;;;;;208.57;75.77;;;;;;;13.85;48.60;100665.03;5047414;28;20392;-81
2023/04/16 03:16:53;;;;;;;203.00;74.83;;;;;;;13.87;48.47;100665.66;5038805;28;20475;-79
2023/04/16 03:19:19;;;;;;;192.95;72.72;;;;;;;13.83;48.57;100665.22;5043933;28;20482;-78
2023/04/16 03:21:44;;;;;;;180.70;69.33;;;;;;;13.83;48.73;100664.38;5034132;28;20401;-78
2023/04/16 03:24:10;;;;;;;183.63;70.20;;;;;;;13.88;48.59;100672.59;5049417;28;20797;-78
2023/04/16 03:26:35;;;;;;;176.77;69.18;;;;;;;13.93;48.51;100673.69;5049083;28;20414;-80
2023/04/16 03:29:01;;;;;;;178.47;68.70;;;;;;;14.03;48.21;100678.69;5042432;28;20392;-79
2023/04/16 03:31:27;;;;;;;177.07;68.22;;;;;;;14.05;48.01;100667.84;5034201;28;20443;-80
2023/04/16 03:33:52;;;;;;;177.23;69.07;;;;;;;14.17;47.70;100674.28;5046166;28;20549;-80
2023/04/16 03:36:18;;;;;;;188.03;70.37;;;;;;;14.27;47.19;100676.59;5037314;28;20417;-80
2023/04/16 03:38:44;;;;;;;177.60;68.90;;;;;;;14.36;47.14;100680.75;5051537;28;20891;-80
2023/04/16 03:41:09;;;;;;;181.18;76.40;;;;;;;14.52;47.02;100687.63;5044075;28;20394;-79
2023/04/16 03:43:35;;;;;;;177.80;73.17;;;;;;;14.57;47.00;100681.69;5039086;28;20532;-79
2023/04/16 03:46:00;;;;;;;172.90;68.65;;;;;;;14.52;46.94;100682.28;5037293;28;20395;-80
2023/04/16 03:48:26;;;;;;;183.57;70.90;;;;;;;14.52;47.17;100679.63;5034890;28;20802;-78
2023/04/16 03:50:51;;;;;;;183.38;70.35;;;;;;;14.52;47.27;100691.09;5045469;28;20457;-79
2023/04/16 03:53:17;;;;;;;176.43;69.63;;;;;;;14.49;47.15;100680.81;5030570;28;20433;-79
2023/04/16 03:55:42;;;;;;;179.07;70.05;;;;;;;14.58;47.39;100689.53;5032401;28;20397;-79
2023/04/16 03:58:08;;;;;;;186.73;69.95;;;;;;;14.60;47.12;100682.13;5034828;28;20405;-82
2023/04/16 04:00:34;;;;;;;186.63;85.70;;;;;;;14.70;47.00;100687.94;5044297;28;20406;-81
2023/04/16 04:02:59;;;;;;;185.70;78.20;;;;;;;14.78;47.03;100689.63;5037762;28;20386;-80
2023/04/16 04:05:25;;;;;;;187.13;78.88;;;;;;;14.77;47.03;100690.66;5029410;28;20424;-81
2023/04/16 04:07:50;;;;;;;177.77;69.30;;;;;;;14.74;47.03;100699.03;5044048;28;20388;-81
2023/04/16 04:10:16;;;;;;;179.43;70.30;;;;;;;14.67;47.22;100700.84;5045222;28;20409;-80
2023/04/16 04:12:42;;;;;;;188.37;72.13;;;;;;;14.65;47.35;100701.06;5034442;28;20778;-79
2023/04/16 04:15:08;;;;;;;171.45;69.18;;;;;;;14.43;48.18;100708.28;5039584;28;20485;-79
2023/04/16 04:17:33;;;;;;;168.65;68.18;;;;;;;14.11;48.66;100709.69;5041110;28;20936;-80
2023/04/16 04:19:58;;;;;;;164.95;67.05;;;;;;;13.93;48.99;100718.16;5036932;28;20468;-79
2023/04/16 04:22:24;;;;;;;169.57;67.17;;;;;;;13.91;48.98;100726.34;5048307;28;20388;-79
2023/04/16 04:24:49;;;;;;;171.80;66.97;;;;;;;13.90;48.94;100715.88;5045946;28;20388;-79
2023/04/16 04:27:15;;;;;;;168.90;66.87;;;;;;;13.75;48.78;100702.63;5045985;28;20393;-79
2023/04/16 04:29:40;;;;;;;173.20;67.57;;;;;;;13.51;49.20;100715.31;5052837;28;20394;-80
2023/04/16 04:32:06;;;;;;;162.67;65.10;;;;;;;13.61;48.74;100714.19;5067043;28;20477;-79
2023/04/16 04:34:31;;;;;;;173.50;66.73;;;;;;;13.83;48.55;100720.31;5069653;28;20376;-79
2023/04/16 04:36:58;;;;;;;178.43;68.22;;;;;;;14.00;48.22;100719.03;5065636;28;20393;-80
2023/04/16 04:39:23;;;;;;;170.82;66.63;;;;;;;13.89;48.23;100720.38;5056980;28;20456;-81
2023/04/16 04:41:49;;;;;;;169.60;66.63;;;;;;;13.83;48.22;100717.66;5044554;28;20418;-80
2023/04/16 04:44:14;;;;;;;177.47;67.87;;;;;;;13.77;48.40;100732.56;5040656;28;20387;-81
2023/04/16 04:46:40;;;;;;;180.50;68.22;;;;;;;13.66;48.71;100715.25;5046428;28;20377;-80
2023/04/16 04:49:05;;;;;;;183.50;69.33;;;;;;;13.70;49.02;100731.69;5055309;28;20404;-80
2023/04/16 04:51:31;;;;;;;186.13;69.63;;;;;;;13.62;49.38;100727.31;5050289;28;20926;-83
2023/04/16 04:53:57;;;;;;;171.00;66.70;;;;;;;13.44;50.05;100734.91;5045394;28;20414;-80
2023/04/16 04:56:22;;;;;;;142.60;61.13;;;;;;;13.29;50.58;100737.56;5036123;28;20394;-79
2023/04/16 04:58:51;;;;;;;119.73;56.97;;;;;;;13.26;50.99;100735.28;5044885;28;20471;-82
2023/04/16 05:01:16;;;;;;;128.40;58.60;;;;;;;13.34;51.05;100741.38;5035650;28;20386;-82
2023/04/16 05:03:42;;;;;;;142.53;61.50;;;;;;;13.48;50.65;100741.50;5045528;28;20382;-80
2023/04/16 05:06:08;;;;;;;147.95;62.58;;;;;;;13.56;50.66;100742.22;5054080;28;20431;-79
2023/04/16 05:08:33;;;;;;;167.73;66.68;;;;;;;13.45;50.66;100732.06;5040732;28;20750;-77
2023/04/16 05:10:59;;;;;;;170.73;67.40;;;;;;;13.46;51.03;100738.19;5037197;28;20386;-79
2023/04/16 05:13:25;;;;;;;159.55;65.10;;;;;;;13.44;50.95;100749.03;5042978;28;20431;-80
2023/04/16 05:15:50;;;;;;;147.05;62.95;;;;;;;13.34;51.53;100746.69;5044926;28;20389;-80
2023/04/16 05:18:16;;;;;;;155.00;63.97;;;;;;;13.42;51.25;100756.41;5038098;28;20382;-80
2023/04/16 05:20:41;;;;;;;154.07;63.92;;;;;;;13.43;51.45;100760.69;5050843;28;20956;-79
2023/04/16 05:23:06;;;;;;;159.73;64.50;;;;;;;13.37;51.72;100750.81;5038408;28;20424;-80
2023/04/16 05:25:32;;;;;;;163.70;65.07;;;;;;;13.38;52.00;100755.13;5045080;28;20934;-80
2023/04/16 05:27:57;;;;;;;166.02;65.50;;;;;;;13.44;51.61;100757.03;5048220;28;20483;-79
2023/04/16 05:30:23;;;;;;;157.83;64.30;;;;;;;13.58;51.33;100761.47;5051439;28;20385;-80
2023/04/16 05:32:48;;;;;;;158.93;64.60;;;;;;;13.52;51.76;100754.25;5042485;28;20463;-80
2023/04/16 05:35:15;;;;;;;176.03;67.10;;;;;;;13.38;52.39;100763.13;5049849;28;20383;-83
2023/04/16 05:37:40;;;;;;;168.82;66.60;;;;;;;13.38;52.43;100749.81;5034953;28;20399;-80
2023/04/16 05:40:07;;;;;;;172.63;67.23;;;;;;;13.31;52.88;100757.69;5035001;28;20763;-80
2023/04/16 05:42:32;;;;;;;173.27;67.57;;;;;;;13.26;53.12;100762.72;5045713;28;20449;-80
2023/04/16 05:44:57;;;;;;;172.73;66.27;;;;;;;13.23;53.64;100764.94;5035013;28;20394;-80
2023/04/16 05:47:23;;;;;;;170.37;67.07;;;;;;;13.26;53.61;100769.91;5041521;28;20395;-78
2023/04/16 05:49:49;;;;;;;158.43;64.37;;;;;;;13.21;53.69;100762.44;5040979;28;20456;-79
2023/04/16 05:52:14;;;;;;;152.37;64.20;;;;;;;13.38;53.18;100769.25;5040706;28;20410;-80
2023/04/16 05:54:40;;;;;;;162.07;65.07;;;;;;;13.61;52.95;100776.25;5038910;28;20489;-79
2023/04/16 05:57:05;;;;;;;166.20;65.87;;;;;;;13.58;52.89;100766.81;5033077;28;20398;-80
2023/04/16 05:59:31;;;;;;;167.95;66.85;;;;;;;13.44;53.65;100766.88;5033546;28;20886;-79
2023/04/16 06:01:57;;;;;;;168.55;66.75;;;;;;;13.51;53.74;100770.44;5040646;28;20385;-80
2023/04/16 06:04:22;;;;;;;161.90;65.33;;;;;;;13.38;54.52;100776.44;5043319;28;20446;-79
2023/04/16 06:06:48;;;;;;;170.10;67.38;;;;;;;13.51;54.30;100773.91;5057644;28;20414;-79
2023/04/16 06:09:13;;;;;;;172.33;68.27;;;;;;;13.61;54.10;100767.44;5039087;28;20401;-80
2023/04/16 06:11:39;;;;;;;165.35;66.32;;;;;;;13.73;53.87;100772.09;5041725;28;20419;-78
2023/04/16 06:14:04;;;;;;;165.13;66.67;;;;;;;13.68;54.19;100763.81;5051895;28;20409;-79
2023/04/16 06:16:30;;;;;;;163.05;66.30;;;;;;;13.57;54.56;100762.47;5050208;28;20454;-81
2023/04/16 06:18:55;;;;;;;177.47;69.27;;;;;;;13.58;54.45;100750.84;5051672;28;20393;-80
2023/04/16 06:21:21;;;;;;;169.95;67.50;;;;;;;13.44;54.98;100762.34;5051022;28;20447;-79
2023/04/16 06:23:46;;;;;;;152.13;64.00;;;;;;;13.42;55.04;100767.03;5038068;28;20387;-81
2023/04/16 06:26:12;;;;;;;163.80;65.70;;;;;;;13.55;54.67;100766.38;5046018;28;20396;-80
2023/04/16 06:28:37;;;;;;;166.93;66.23;;;;;;;13.60;54.78;100763.16;5051534;28;20459;-79
2023/04/16 06:31:03;;;;;;;159.23;64.63;;;;;;;13.54;55.13;100752.22;5047548;28;20420;-79
2023/04/16 06:33:28;;;;;;;150.07;62.80;;;;;;;13.49;55.36;100762.63;5040151;28;20523;-80
2023/04/16 06:35:54;;;;;;;164.23;65.30;;;;;;;13.52;55.49;100754.25;5033917;28;20851;-79
2023/04/16 06:38:19;;;;;;;172.18;66.75;;;;;;;13.53;55.50;100744.44;5053519;28;20396;-82
2023/04/16 06:40:45;;;;;;;166.60;65.30;;;;;;;13.35;56.40;100750.16;5055735;28;20456;-79
2023/04/16 06:43:10;;;;;;;171.60;65.72;;;;;;;13.55;55.85;100755.72;5045011;28;21069;-79
2023/04/16 06:45:36;;;;;;;173.00;66.80;;;;;;;13.61;55.77;100760.28;5034992;28;20401;-79
2023/04/16 06:48:02;;;;;;;161.98;64.00;;;;;;;13.68;55.60;100758.50;5041187;28;20927;-80
2023/04/16 06:50:28;;;;;;;168.53;66.13;;;;;;;13.78;55.09;100742.22;5037964;28;20737;-80
2023/04/16 06:52:54;;;;;;;166.70;65.60;;;;;;;13.99;54.62;100752.06;5039370;28;20900;-79
2023/04/16 06:55:20;;;;;;;171.27;66.28;;;;;;;14.19;53.95;100765.56;5041581;28;20415;-80
2023/04/16 06:57:45;;;;;;;162.60;64.93;;;;;;;14.17;54.29;100764.94;5042633;28;20396;-79
2023/04/16 07:00:11;;;;;;;173.15;68.07;;;;;;;14.28;53.97;100758.25;5041277;28;20394;-81
2023/04/16 07:02:36;;;;;;;169.57;66.40;;;;;;;14.36;53.58;100754.59;5038327;28;20440;-80
2023/04/16 07:05:02;;;;;;;168.97;66.73;;;;;;;14.38;53.87;100765.91;5043422;28;20932;-79
2023/04/16 07:07:28;;;;;;;167.27;65.88;;;;;;;14.25;54.33;100756.78;5043378;28;20392;-83
2023/04/16 07:09:53;;;;;;;172.37;66.80;;;;;;;14.33;54.16;100758.47;5044959;28;20385;-81
2023/04/16 07:12:19;;;;;;;165.67;65.87;;;;;;;14.29;54.74;100757.22;5037609;28;20382;-81
2023/04/16 07:14:46;;;;;;;166.80;65.75;;;;;;;14.30;54.64;100761.53;5039028;28;20397;-81
2023/04/16 07:17:11;;;;;;;160.10;63.95;;;;;;;14.22;54.36;100759.00;5041115;28;20456;-81
2023/04/16 07:19:37;;;;;;;176.00;66.90;;;;;;;14.41;54.07;100757.53;5043489;28;20390;-81
2023/04/16 07:22:03;;;;;;;167.27;65.57;;;;;;;14.54;53.67;100747.75;5040917;28;20389;-79
2023/04/16 07:24:29;;;;;;;159.23;63.97;;;;;;;14.56;53.90;100746.75;5038990;28;20421;-79
2023/04/16 07:26:55;;;;;;;163.93;65.00;;;;;;;14.42;54.30;100754.66;5059550;28;20437;-80
2023/04/16 07:29:20;;;;;;;165.60;65.30;;;;;;;14.56;54.08;100752.06;5043606;28;20394;-79
2023/04/16 07:31:46;;;;;;;162.00;66.13;;;;;;;14.87;53.56;100757.00;5038969;28;20473;-79
2023/04/16 07:34:11;;;;;;;162.07;64.43;;;;;;;15.08;52.85;100754.22;5034321;28;20421;-80
2023/04/16 07:36:38;;;;;;;158.73;67.90;;;;;;;15.13;52.79;100755.50;5036647;28;20882;-80
2023/04/16 07:39:05;;;;;;;167.80;66.70;;;;;;;15.24;52.39;100753.06;5035681;28;20875;-81
2023/04/16 07:41:30;;;;;;;153.38;62.35;;;;;;;15.14;52.61;100760.63;5039394;28;20380;-79
2023/04/16 07:43:56;;;;;;;146.90;61.50;;;;;;;15.02;52.66;100763.03;5041305;28;20484;-79
2023/04/16 07:46:22;;;;;;;155.30;63.00;;;;;;;14.90;53.12;100757.44;5038176;28;20691;-79
2023/04/16 07:48:49;;;;;;;149.93;62.03;;;;;;;15.13;52.71;100755.50;5040476;28;20864;-79
2023/04/16 07:51:14;;;;;;;151.77;62.03;;;;;;;15.21;52.51;100772.16;5040335;28;20389;-79
2023/04/16 07:53:40;;;;;;;151.40;62.00;;;;;;;15.47;52.00;100766.09;5041707;28;20420;-78
2023/04/16 07:56:06;;;;;;;154.45;63.20;;;;;;;15.57;51.65;100770.22;5045568;28;20388;-79
2023/04/16 07:58:32;;;;;;;190.67;70.40;;;;;;;15.59;51.41;100771.69;5037895;28;20384;-82
2023/04/16 08:00:57;;;;;;;175.10;67.53;;;;;;;15.59;51.69;100771.69;5049002;28;20379;-79
2023/04/16 08:03:23;;;;;;;180.90;68.22;;;;;;;15.38;52.26;100780.66;5039616;28;20397;-80
2023/04/16 08:05:48;;;;;;;176.47;67.93;;;;;;;15.24;52.84;100770.94;5052374;28;20439;-79
2023/04/16 08:08:14;;;;;;;174.60;67.75;;;;;;;15.39;52.46;100782.28;5041221;28;20394;-81
2023/04/16 08:10:39;;;;;;;222.00;77.73;;;;;;;15.37;52.26;100770.97;5043511;28;20451;-79
2023/04/16 08:13:05;;;;;;;360.60;102.47;;;;;;;15.49;52.05;100769.38;5050761;28;20422;-79
2023/04/16 08:15:31;;;;;;;361.77;105.40;;;;;;;15.57;51.95;100771.03;5037979;28;20472;-80
2023/04/16 08:17:56;;;;;;;297.40;93.20;;;;;;;15.48;51.97;100775.78;5037953;28;20390;-80
2023/04/16 08:20:22;;;;;;;348.10;103.13;;;;;;;15.43;52.25;100772.03;5038608;28;20381;-80
2023/04/16 08:22:48;;;;;;;297.30;93.53;;;;;;;15.34;52.77;100767.88;5050875;28;20421;-80
2023/04/16 08:25:14;;;;;;;315.58;96.10;;;;;;;15.43;52.69;100772.88;5045933;28;20382;-80
2023/04/16 08:27:39;;;;;;;336.73;104.63;;;;;;;15.47;52.48;100776.78;5057236;28;20426;-80
2023/04/16 08:30:06;;;;;;;312.20;94.95;;;;;;;15.64;52.27;100776.41;5071433;28;20385;-80
2023/04/16 08:32:32;;;;;;;304.80;94.15;;;;;;;15.49;53.15;100782.75;5059959;28;20412;-81
2023/04/16 08:34:58;;;;;;;343.37;100.97;;;;;;;15.59;53.17;100790.41;5063402;28;20402;-79
2023/04/16 08:37:25;;;;;;;364.43;104.93;;;;;;;15.45;53.90;100786.03;5053628;28;20391;-81
2023/04/16 08:39:50;;;;;;;271.95;87.05;;;;;;;15.03;55.11;100775.34;5058056;28;20384;-82
2023/04/16 08:42:39;;;;;;;307.37;93.33;;;;;;;14.77;55.80;100767.22;5057502;28;20463;-81
2023/04/16 08:45:14;;;;;;;326.17;95.97;;;;;;;14.42;57.08;100764.47;5042960;28;20911;-81
2023/04/16 08:47:40;;;;;;;292.75;89.78;;;;;;;14.24;59.15;100749.81;5039802;28;20408;-82
2023/04/16 08:50:10;;;;;;;431.87;111.87;;;;;;;14.41;59.60;100760.19;5045993;28;20418;-82
2023/04/16 08:52:41;;;;;;;372.27;103.75;;;;;;;14.50;59.53;100767.84;5048503;28;20461;-84
2023/04/16 08:55:15;;;;;;;328.65;95.85;;;;;;;14.30;60.60;100751.69;5035624;28;20398;-85
2023/04/16 08:57:49;;;;;;;316.65;94.43;;;;;;;14.19;61.36;100746.03;5038258;28;20390;-87
2023/04/16 09:00:15;;;;;;;295.67;90.03;;;;;;;14.25;61.24;100738.09;5044592;28;20375;-87
2023/04/16 09:02:41;;;;;;;215.55;75.38;;;;;;;14.24;61.52;100739.16;5069204;28;20445;-89
2023/04/16 09:05:08;;;;;;;235.57;79.47;;;;;;;14.24;62.14;100722.28;5039607;28;20382;-87
2023/04/16 09:07:34;;;;;;;226.30;77.57;;;;;;;14.40;61.78;100726.53;5036010;28;20485;-84
2023/04/16 09:10:03;;;;;;;229.13;79.30;;;;;;;14.39;62.19;100736.38;5035235;28;20465;-83
2023/04/16 09:12:30;;;;;;;218.00;76.65;;;;;;;14.28;62.85;100750.25;5031434;28;20460;-83
2023/04/16 09:14:56;;;;;;;207.53;73.63;;;;;;;14.28;63.45;100745.72;5032780;28;20378;-82
2023/04/16 09:17:21;;;;;;;180.23;69.35;;;;;;;14.32;64.06;100730.16;5032271;28;20727;-82
2023/04/16 09:19:47;;;;;;;254.70;83.10;;;;;;;14.36;63.48;100738.59;5031757;28;20854;-81
2023/04/16 09:22:13;;;;;;;277.27;87.28;;;;;;;14.48;63.19;100735.19;5033548;28;20459;-83
2023/04/16 09:24:38;;;;;;;302.23;90.53;;;;;;;14.46;62.97;100734.56;5032105;28;20379;-81
2023/04/16 09:27:04;;;;;;;287.83;88.70;;;;;;;14.59;62.98;100735.72;5032712;28;20374;-80
2023/04/16 09:29:40;;;;;;;365.70;101.55;;;;;;;14.46;62.46;100739.91;5032647;28;20379;-79
2023/04/16 09:32:07;;;;;;;384.27;104.68;;;;;;;14.51;62.29;100732.16;5032619;28;20382;-80
2023/04/16 09:34:34;;;;;;;636.25;153.80;;;;;;;14.52;61.83;100731.13;5032465;28;20400;-81
2023/04/16 09:37:16;;;;;;;606.58;146.60;;;;;;;14.65;61.95;100735.72;5032198;28;20387;-80
2023/04/16 09:39:43;;;;;;;624.10;152.27;;;;;;;14.75;61.62;100743.41;5032332;28;21221;-80
2023/04/16 09:42:09;;;;;;;658.35;162.13;;;;;;;14.77;61.74;100753.88;5032682;28;20386;-80
2023/04/16 09:44:36;;;;;;;620.10;146.93;;;;;;;14.68;61.06;100742.53;5032741;28;20370;-80
2023/04/16 09:47:06;;;;;;;656.72;157.40;;;;;;;14.79;61.13;100741.16;5032639;28;20373;-80
2023/04/16 09:49:43;;;;;;;728.10;178.02;;;;;;;14.97;60.52;100749.47;5032383;28;20393;-81
2023/04/16 09:55:09;;;;;;;715.50;173.90;;;;;;;15.07;59.91;100739.25;5112444;27;20361;-81
2023/04/16 09:57:37;;;;;;;668.43;157.17;;;;;;;15.11;59.45;100747.69;5110767;28;20907;-81
2023/04/16 10:00:09;;;;;;;685.22;164.70;;;;;;;15.16;59.46;100749.75;5109997;28;20383;-80
2023/04/16 10:02:40;;;;;;;733.55;176.45;;;;;;;15.27;59.58;100750.00;5121188;28;20381;-81
2023/04/16 10:05:06;;;;;;;611.15;143.30;;;;;;;15.17;60.19;100746.88;5112402;28;20384;-83
2023/04/16 10:07:36;;;;;;;556.45;132.43;;;;;;;15.26;59.77;100740.34;5110762;28;20384;-81
2023/04/16 10:10:02;;;;;;;570.42;135.70;;;;;;;15.47;59.55;100736.72;5109917;28;20383;-82
2023/04/16 10:12:31;;;;;;;559.60;133.15;;;;;;;15.74;59.15;100736.81;5110000;28;20388;-82
2023/04/16 10:14:57;;;;;;;556.77;132.77;;;;;;;15.82;59.05;100743.78;5110212;28;20470;-81
2023/04/16 10:17:23;;;;;;;542.60;129.57;;;;;;;15.80;58.66;100727.94;5110456;28;20376;-84
2023/04/16 10:19:50;;;;;;;532.08;127.32;;;;;;;15.71;58.21;100731.81;5119429;28;20372;-83
2023/04/16 10:22:15;;;;;;;550.85;131.40;;;;;;;15.79;58.23;100739.69;5112839;28;20380;-82
2023/04/16 10:24:42;;;;;;;563.75;133.88;;;;;;;15.68;58.36;100735.72;5110420;28;20384;-82
2023/04/16 10:27:07;;;;;;;556.27;132.80;;;;;;;15.83;58.30;100735.56;5110534;28;20392;-84
2023/04/16 10:29:34;;;;;;;544.83;130.77;;;;;;;15.94;57.84;100736.00;5109950;28;20473;-83
2023/04/16 10:32:00;;;;;;;562.20;133.65;;;;;;;16.05;57.24;100733.53;5109111;28;20474;-82
2023/04/16 10:34:27;;;;;;;551.60;131.95;;;;;;;16.09;57.08;100731.25;5109769;28;20611;-84
2023/04/16 10:36:54;;;;;;;538.03;128.35;;;;;;;16.21;56.37;100734.97;5109630;28;20873;-82
2023/04/16 10:39:21;;;;;;;544.65;130.30;;;;;;;16.36;55.59;100729.38;5108608;28;20381;-81
2023/04/16 10:41:47;;;;;;;536.38;128.80;;;;;;;16.70;54.40;100732.00;5108324;28;20369;-81
2023/04/16 10:44:16;;;;;;;554.70;132.48;;;;;;;16.62;53.71;100733.06;5108728;28;20397;-81
2023/04/16 10:46:43;;;;;;;548.05;130.95;;;;;;;16.68;53.44;100731.41;5109222;28;20377;-81
2023/04/16 10:49:13;;;;;;;556.58;132.60;;;;;;;16.61;53.17;100739.44;5109796;28;20381;-81
2023/04/16 10:51:40;;;;;;;546.15;130.57;;;;;;;16.51;53.04;100729.19;5109299;28;20380;-82
2023/04/16 10:54:10;;;;;;;540.58;129.50;;;;;;;16.57;52.58;100722.16;5108836;28;20409;-81
2023/04/16 10:56:36;;;;;;;541.80;130.10;;;;;;;16.82;52.70;100720.44;5110773;28;20461;-82
2023/04/16 10:59:09;;;;;;;552.97;131.85;;;;;;;16.85;52.71;100721.06;5109136;28;20410;-81